Time;durP1;ratioP1;P1;durP2;ratioP2;P2;SDS_P1;SDS_P2;PMS_P1;PMS_P2;Temp;Humidity;BMP_temperature;BMP_pressure;BME280_temperature;BME280_humidity;BME280_pressure;Samples;Min_cycle;Max_cycle;Signal;HPM_P1;HPM_P2
2021/12/03 00:01:18;;;;;;;5.00;2.97;;;1.80;99.90;;;;;;5092074;28;20176;-58
2021/12/03 00:03:44;;;;;;;4.20;2.67;;;1.80;99.90;;;;;;5092183;28;20184;-58
2021/12/03 00:06:11;;;;;;;5.43;2.70;;;1.80;99.90;;;;;;5091955;28;20223;-58
2021/12/03 00:08:37;;;;;;;6.00;2.50;;;1.80;99.90;;;;;;5090733;28;20191;-58
2021/12/03 00:11:03;;;;;;;4.80;2.67;;;1.80;99.90;;;;;;5092155;28;20176;-58
2021/12/03 00:13:31;;;;;;;5.33;3.00;;;1.80;99.90;;;;;;5091848;28;20257;-58
2021/12/03 00:15:58;;;;;;;4.70;2.77;;;1.80;99.90;;;;;;5092023;28;20221;-58
2021/12/03 00:18:25;;;;;;;4.27;2.70;;;1.80;99.90;;;;;;5091932;28;20187;-58
2021/12/03 00:20:51;;;;;;;4.07;2.30;;;1.80;99.90;;;;;;5091831;28;20233;-58
2021/12/03 00:23:18;;;;;;;3.37;2.30;;;1.80;99.90;;;;;;5092026;28;20550;-58
2021/12/03 00:25:44;;;;;;;3.57;2.77;;;1.80;99.90;;;;;;5091811;28;20638;-58
2021/12/03 00:28:09;;;;;;;4.33;2.50;;;1.80;99.90;;;;;;5090534;28;20230;-58
2021/12/03 00:30:37;;;;;;;3.17;2.20;;;1.90;99.90;;;;;;5091778;28;20179;-59
2021/12/03 00:33:04;;;;;;;2.87;2.50;;;1.80;99.90;;;;;;5094425;28;20175;-58
2021/12/03 00:35:30;;;;;;;5.13;2.60;;;1.90;99.90;;;;;;5095833;28;20195;-58
2021/12/03 00:37:55;;;;;;;4.97;2.63;;;1.90;99.90;;;;;;5095989;28;20176;-58
2021/12/03 00:40:25;;;;;;;4.17;2.43;;;1.90;99.90;;;;;;5095828;28;20188;-59
2021/12/03 00:42:51;;;;;;;5.67;2.60;;;1.90;99.90;;;;;;5095763;28;20223;-58
2021/12/03 00:45:17;;;;;;;4.50;3.03;;;1.90;99.90;;;;;;5095888;28;20168;-58
2021/12/03 00:47:44;;;;;;;6.37;3.47;;;1.90;99.90;;;;;;5095722;28;20198;-58
2021/12/03 00:50:12;;;;;;;4.85;3.25;;;1.90;99.90;;;;;;5095710;28;20168;-58
2021/12/03 00:52:37;;;;;;;5.20;2.80;;;1.90;99.90;;;;;;5095484;28;20184;-58
2021/12/03 00:55:05;;;;;;;5.57;2.92;;;1.90;99.90;;;;;;5095505;28;20730;-58
2021/12/03 00:57:30;;;;;;;3.80;2.73;;;1.90;99.90;;;;;;5094917;28;20211;-59
2021/12/03 00:59:57;;;;;;;4.00;2.50;;;1.90;99.90;;;;;;5095643;28;20211;-57
2021/12/03 01:02:22;;;;;;;4.50;2.70;;;1.90;99.90;;;;;;5095420;28;20211;-59
2021/12/03 01:04:48;;;;;;;4.57;3.10;;;1.90;99.90;;;;;;5095464;28;20179;-58
2021/12/03 01:07:14;;;;;;;4.73;2.97;;;1.90;99.90;;;;;;5095501;28;20204;-58
2021/12/03 01:09:40;;;;;;;3.67;2.80;;;1.80;99.90;;;;;;5095352;28;20183;-58
2021/12/03 01:12:05;;;;;;;6.73;3.17;;;1.80;99.90;;;;;;5096509;28;20171;-59
2021/12/03 01:14:31;;;;;;;5.03;2.73;;;1.80;99.90;;;;;;5106270;28;20172;-59
2021/12/03 01:16:57;;;;;;;5.27;2.90;;;1.80;99.90;;;;;;5095297;28;20175;-58
2021/12/03 01:19:22;;;;;;;5.13;3.17;;;1.80;99.90;;;;;;5095431;28;20176;-58
2021/12/03 01:21:48;;;;;;;5.83;3.30;;;1.80;99.90;;;;;;5093717;28;20679;-59
2021/12/03 01:24:14;;;;;;;4.73;2.80;;;1.80;99.90;;;;;;5095264;28;20256;-58
2021/12/03 01:26:42;;;;;;;4.77;3.30;;;1.80;99.90;;;;;;5094989;28;20180;-59
2021/12/03 01:29:07;;;;;;;6.97;3.60;;;1.80;99.90;;;;;;5094994;28;20540;-59
2021/12/03 01:31:34;;;;;;;9.50;3.23;;;1.80;99.90;;;;;;5094825;28;20335;-59
2021/12/03 01:33:59;;;;;;;4.33;2.90;;;1.80;99.90;;;;;;5094887;28;20715;-59
2021/12/03 01:36:25;;;;;;;4.33;3.00;;;1.80;99.90;;;;;;5094917;28;20204;-60
2021/12/03 01:38:50;;;;;;;6.13;3.30;;;1.80;99.90;;;;;;5094698;28;20237;-58
2021/12/03 01:41:16;;;;;;;4.83;3.03;;;1.80;99.90;;;;;;5094830;28;20267;-58
2021/12/03 01:43:43;;;;;;;5.60;3.17;;;1.80;99.90;;;;;;5093318;28;20568;-57
2021/12/03 01:46:10;;;;;;;6.20;3.97;;;1.80;99.90;;;;;;5094540;28;20643;-58
2021/12/03 01:48:37;;;;;;;5.10;3.70;;;1.90;99.90;;;;;;5094592;28;20180;-58
2021/12/03 01:51:03;;;;;;;9.67;3.80;;;1.80;99.90;;;;;;5094765;28;20172;-58
2021/12/03 01:53:32;;;;;;;6.63;3.33;;;1.80;99.90;;;;;;5094306;28;20700;-58
2021/12/03 01:56:00;;;;;;;6.80;3.57;;;1.80;99.90;;;;;;5094353;28;20227;-59
2021/12/03 01:58:26;;;;;;;5.23;3.40;;;1.80;99.90;;;;;;5094358;28;20673;-58
2021/12/03 02:00:59;;;;;;;4.93;3.47;;;1.80;99.90;;;;;;5094567;28;20199;-58
2021/12/03 02:03:28;;;;;;;6.37;3.20;;;1.70;99.90;;;;;;5094398;28;20203;-59
2021/12/03 02:05:54;;;;;;;5.60;3.70;;;1.70;99.90;;;;;;5094439;28;20225;-58
2021/12/03 02:08:20;;;;;;;6.80;3.97;;;1.60;99.90;;;;;;5094358;28;20265;-60
2021/12/03 02:10:46;;;;;;;7.93;3.80;;;1.60;99.90;;;;;;5094284;28;20264;-58
2021/12/03 02:13:13;;;;;;;5.17;3.57;;;1.60;99.90;;;;;;5094286;28;20606;-58
2021/12/03 02:15:41;;;;;;;8.10;4.40;;;1.60;99.90;;;;;;5094206;28;20187;-59
2021/12/03 02:18:08;;;;;;;6.40;4.00;;;1.50;99.90;;;;;;5094255;28;20172;-59
2021/12/03 02:20:34;;;;;;;7.83;4.50;;;1.50;99.90;;;;;;5094050;28;20212;-58
2021/12/03 02:22:59;;;;;;;8.10;4.10;;;1.40;99.90;;;;;;5094092;28;20246;-59
2021/12/03 02:25:26;;;;;;;7.10;4.27;;;1.40;99.90;;;;;;5093998;28;20172;-59
2021/12/03 02:27:55;;;;;;;7.17;4.37;;;1.30;99.90;;;;;;5094208;28;20172;-59
2021/12/03 02:30:22;;;;;;;7.90;4.30;;;1.30;99.90;;;;;;5093830;28;20203;-59
2021/12/03 02:32:50;;;;;;;9.07;4.80;;;1.30;99.90;;;;;;5094005;28;20188;-59
2021/12/03 02:35:18;;;;;;;7.70;4.57;;;1.30;99.90;;;;;;5093894;28;20176;-59
2021/12/03 02:37:44;;;;;;;7.53;4.40;;;1.30;99.90;;;;;;5093511;28;20191;-60
2021/12/03 02:40:10;;;;;;;8.90;4.97;;;1.20;99.90;;;;;;5093696;28;20172;-59
2021/12/03 02:42:36;;;;;;;8.73;4.87;;;1.30;99.90;;;;;;5093577;28;20574;-59
2021/12/03 02:45:04;;;;;;;8.37;4.87;;;1.30;99.90;;;;;;5093607;28;20179;-59
2021/12/03 02:47:29;;;;;;;7.93;4.87;;;1.30;99.90;;;;;;5093362;28;20255;-59
2021/12/03 02:49:55;;;;;;;9.07;4.93;;;1.30;99.90;;;;;;5093555;28;20314;-59
2021/12/03 02:52:21;;;;;;;11.33;4.47;;;1.30;99.90;;;;;;5093348;28;20180;-59
2021/12/03 02:54:46;;;;;;;10.50;4.53;;;1.30;99.90;;;;;;5092719;28;20224;-59
2021/12/03 02:57:12;;;;;;;9.30;4.73;;;1.20;99.90;;;;;;5093389;28;20586;-59
2021/12/03 02:59:37;;;;;;;7.20;4.27;;;1.20;99.90;;;;;;5093316;28;20643;-58
2021/12/03 03:02:03;;;;;;;10.03;4.73;;;1.30;99.90;;;;;;5093092;28;20845;-58
2021/12/03 03:04:29;;;;;;;10.03;5.07;;;1.30;99.90;;;;;;5093090;28;20187;-59
2021/12/03 03:06:54;;;;;;;6.53;3.97;;;1.20;99.90;;;;;;5093152;28;20165;-58
2021/12/03 03:09:20;;;;;;;7.63;4.23;;;1.20;99.90;;;;;;5093156;28;20207;-59
2021/12/03 03:11:46;;;;;;;8.30;4.53;;;1.20;99.90;;;;;;5092958;28;20266;-58
2021/12/03 03:14:11;;;;;;;7.90;4.73;;;1.20;99.90;;;;;;5093037;28;20211;-58
2021/12/03 03:16:37;;;;;;;6.90;4.63;;;1.20;99.90;;;;;;5092873;28;20181;-58
2021/12/03 03:19:11;;;;;;;9.20;4.77;;;1.10;99.90;;;;;;5092861;28;20180;-59
2021/12/03 03:21:37;;;;;;;8.40;4.97;;;1.10;99.90;;;;;;5092683;28;20223;-59
2021/12/03 03:24:05;;;;;;;7.73;4.40;;;1.10;99.90;;;;;;5092754;28;20211;-59
2021/12/03 03:26:30;;;;;;;8.40;4.93;;;1.10;99.90;;;;;;5092590;28;20188;-59
2021/12/03 03:28:57;;;;;;;8.53;4.80;;;1.10;99.90;;;;;;5092779;28;20183;-58
2021/12/03 03:31:23;;;;;;;8.43;5.00;;;1.10;99.90;;;;;;5092583;28;20288;-59
2021/12/03 03:33:48;;;;;;;9.03;4.93;;;1.10;99.90;;;;;;5092628;28;20271;-59
2021/12/03 03:36:14;;;;;;;8.00;4.67;;;1.20;99.90;;;;;;5092718;28;20188;-59
2021/12/03 03:38:40;;;;;;;10.67;5.00;;;1.20;99.90;;;;;;5092425;28;20576;-59
2021/12/03 03:41:05;;;;;;;8.70;4.67;;;1.20;99.90;;;;;;5092458;28;20176;-59
2021/12/03 03:43:31;;;;;;;10.00;5.40;;;1.10;99.90;;;;;;5092377;28;20257;-59
2021/12/03 03:45:57;;;;;;;7.37;4.70;;;1.20;99.90;;;;;;5092579;28;20260;-58
2021/12/03 03:48:24;;;;;;;10.77;5.03;;;1.10;99.90;;;;;;5092568;28;20650;-58
2021/12/03 03:50:50;;;;;;;8.10;5.40;;;1.10;99.90;;;;;;5092380;28;20172;-58
2021/12/03 03:53:16;;;;;;;10.70;5.77;;;1.20;99.90;;;;;;5092453;28;20269;-58
2021/12/03 03:55:42;;;;;;;9.67;5.20;;;1.10;99.90;;;;;;5091860;28;20644;-58
2021/12/03 03:58:08;;;;;;;9.23;4.83;;;1.10;99.90;;;;;;5092331;28;20251;-58
2021/12/03 04:00:40;;;;;;;8.30;4.80;;;1.00;99.90;;;;;;5092204;28;20180;-58
2021/12/03 04:03:07;;;;;;;10.10;5.17;;;1.00;99.90;;;;;;5092061;28;20254;-57
2021/12/03 04:05:32;;;;;;;11.63;5.17;;;1.00;99.90;;;;;;5091752;28;20176;-58
2021/12/03 04:07:58;;;;;;;8.63;5.40;;;1.00;99.90;;;;;;5091873;28;20184;-58
2021/12/03 04:10:24;;;;;;;8.87;5.43;;;1.00;99.90;;;;;;5091987;28;20659;-59
2021/12/03 04:12:50;;;;;;;9.57;5.60;;;1.00;99.90;;;;;;5092007;28;20176;-57
2021/12/03 04:15:16;;;;;;;10.83;5.47;;;1.00;99.90;;;;;;5104354;28;20515;-57
2021/12/03 04:17:42;;;;;;;12.87;5.97;;;1.10;99.90;;;;;;5091852;28;20180;-58
2021/12/03 04:20:10;;;;;;;9.90;4.90;;;1.00;99.90;;;;;;5092029;28;20187;-57
2021/12/03 04:22:36;;;;;;;10.50;5.87;;;0.90;99.90;;;;;;5091846;28;20216;-57
2021/12/03 04:25:04;;;;;;;12.13;5.73;;;0.80;99.90;;;;;;5091775;28;20208;-57
2021/12/03 04:27:30;;;;;;;12.10;5.40;;;0.80;99.90;;;;;;5091765;28;20176;-58
2021/12/03 04:29:55;;;;;;;11.50;6.30;;;0.70;99.90;;;;;;5091909;28;20176;-57
2021/12/03 04:32:22;;;;;;;11.33;5.30;;;0.60;99.90;;;;;;5091761;28;20187;-58
2021/12/03 04:34:48;;;;;;;8.93;5.10;;;0.60;99.90;;;;;;5091907;28;20168;-58
2021/12/03 04:37:14;;;;;;;9.90;5.70;;;0.50;99.90;;;;;;5091907;28;20187;-57
2021/12/03 04:39:39;;;;;;;12.73;6.23;;;0.40;99.90;;;;;;5091618;28;20199;-57
2021/12/03 04:42:05;;;;;;;10.47;5.83;;;0.40;99.90;;;;;;5091396;28;20762;-58
2021/12/03 04:44:30;;;;;;;12.80;5.97;;;0.30;99.90;;;;;;5091611;28;20188;-58
2021/12/03 04:46:56;;;;;;;10.97;5.97;;;0.30;99.90;;;;;;5091786;28;20249;-58
2021/12/03 04:49:22;;;;;;;9.87;5.23;;;0.30;99.90;;;;;;5091635;28;20628;-58
2021/12/03 04:51:47;;;;;;;11.47;6.20;;;0.30;99.90;;;;;;5091353;28;20215;-58
2021/12/03 04:54:13;;;;;;;15.50;6.43;;;0.30;99.90;;;;;;5090254;28;20180;-58
2021/12/03 04:56:38;;;;;;;11.80;6.10;;;0.20;99.90;;;;;;5091592;28;20181;-58
2021/12/03 04:59:04;;;;;;;9.90;5.77;;;0.30;99.90;;;;;;5091604;28;20183;-58
2021/12/03 05:01:30;;;;;;;10.30;5.73;;;0.30;99.90;;;;;;5091417;28;20255;-58
2021/12/03 05:03:55;;;;;;;13.03;6.77;;;0.30;99.90;;;;;;5091617;28;20180;-58
2021/12/03 05:06:29;;;;;;;11.33;5.90;;;0.30;99.90;;;;;;5091261;28;20188;-58
2021/12/03 05:08:56;;;;;;;11.13;5.63;;;0.30;99.90;;;;;;5071414;28;20184;-59
2021/12/03 05:11:21;;;;;;;12.87;6.17;;;0.30;99.90;;;;;;5071184;28;20177;-59
2021/12/03 05:13:47;;;;;;;14.77;7.03;;;0.20;99.90;;;;;;5071298;28;20226;-59
2021/12/03 05:16:13;;;;;;;12.27;6.57;;;0.30;99.90;;;;;;5071307;28;20690;-58
2021/12/03 05:18:38;;;;;;;12.80;6.40;;;0.30;99.90;;;;;;5073666;28;20179;-57
2021/12/03 05:21:04;;;;;;;11.60;6.33;;;0.20;99.90;;;;;;5074595;28;20251;-58
2021/12/03 05:23:32;;;;;;;12.97;7.07;;;0.20;99.90;;;;;;5074680;28;20169;-58
2021/12/03 05:25:58;;;;;;;13.00;6.37;;;0.20;99.90;;;;;;5085435;28;20276;-58
2021/12/03 05:28:25;;;;;;;15.03;6.90;;;0.20;99.90;;;;;;5094856;28;20188;-58
2021/12/03 05:30:51;;;;;;;12.07;6.50;;;0.10;99.90;;;;;;5095024;28;20176;-58
2021/12/03 05:33:19;;;;;;;12.53;6.50;;;0.10;99.90;;;;;;5095000;28;20234;-58
2021/12/03 05:35:44;;;;;;;13.43;6.73;;;0.00;99.90;;;;;;5094295;28;20218;-58
2021/12/03 05:38:10;;;;;;;16.37;7.00;;;0.00;99.90;;;;;;5094212;28;20204;-58
2021/12/03 05:40:36;;;;;;;13.83;6.00;;;-0.10;99.90;;;;;;5074572;28;20263;-58
2021/12/03 05:43:01;;;;;;;13.23;6.47;;;-0.10;99.90;;;;;;5074467;28;20636;-58
2021/12/03 05:45:31;;;;;;;13.53;6.70;;;-0.10;99.90;;;;;;5074612;28;20246;-58
2021/12/03 05:47:58;;;;;;;15.50;7.33;;;-0.20;99.90;;;;;;5074227;28;20177;-58
2021/12/03 05:50:24;;;;;;;13.50;6.67;;;-0.20;99.90;;;;;;5074468;28;20173;-58
2021/12/03 05:52:51;;;;;;;15.80;7.30;;;-0.30;99.90;;;;;;5074355;28;20230;-58
2021/12/03 05:55:17;;;;;;;14.20;7.27;;;-0.30;99.90;;;;;;5074007;28;20232;-58
2021/12/03 05:57:44;;;;;;;14.03;6.63;;;-0.30;99.90;;;;;;5072988;28;20242;-58
2021/12/03 06:00:32;;;;;;;13.20;6.03;;;-0.40;99.90;;;;;;5073046;28;20180;-58
2021/12/03 06:02:59;;;;;;;12.97;6.70;;;-0.40;99.90;;;;;;5073984;28;20255;-58
2021/12/03 06:05:27;;;;;;;12.20;6.67;;;-0.40;99.90;;;;;;5074090;28;20179;-58
2021/12/03 06:07:53;;;;;;;16.23;7.50;;;-0.40;99.90;;;;;;5074198;28;20185;-58
2021/12/03 06:10:19;;;;;;;15.33;7.07;;;-0.50;99.90;;;;;;5073958;28;20647;-58
2021/12/03 06:12:45;;;;;;;13.43;7.37;;;-0.50;99.90;;;;;;5074011;28;20184;-58
2021/12/03 06:15:11;;;;;;;16.93;8.40;;;-0.50;99.90;;;;;;5073884;28;20632;-58
2021/12/03 06:17:37;;;;;;;16.10;8.40;;;-0.50;99.90;;;;;;5073797;28;20206;-58
2021/12/03 06:20:04;;;;;;;17.10;8.77;;;-0.50;99.90;;;;;;5073834;28;20173;-58
2021/12/03 06:22:30;;;;;;;14.53;7.90;;;-0.50;99.90;;;;;;5072354;28;20217;-58
2021/12/03 06:24:56;;;;;;;14.53;7.57;;;-0.50;99.90;;;;;;5073756;28;20327;-58
2021/12/03 06:27:24;;;;;;;19.20;8.73;;;-0.50;99.90;;;;;;5073808;28;20636;-58
2021/12/03 06:29:50;;;;;;;14.60;7.47;;;-0.50;99.90;;;;;;5073048;28;20181;-58
2021/12/03 06:32:16;;;;;;;13.63;7.23;;;-0.60;99.90;;;;;;5073749;28;20185;-58
2021/12/03 06:34:41;;;;;;;21.77;8.10;;;-0.60;99.90;;;;;;5073567;28;20538;-58
2021/12/03 06:37:07;;;;;;;13.97;6.83;;;-0.60;99.90;;;;;;5073558;28;20227;-58
2021/12/03 06:39:33;;;;;;;14.53;7.27;;;-0.50;99.90;;;;;;5084727;28;20180;-58
2021/12/03 06:41:58;;;;;;;16.03;6.80;;;-0.50;99.90;;;;;;5093445;28;20223;-57
2021/12/03 06:44:25;;;;;;;16.90;7.67;;;-0.50;99.90;;;;;;5093551;28;20262;-58
2021/12/03 06:46:53;;;;;;;14.83;7.03;;;-0.50;99.90;;;;;;5093553;28;20266;-58
2021/12/03 06:49:19;;;;;;;16.83;7.63;;;-0.50;99.90;;;;;;5093303;28;20627;-58
2021/12/03 06:51:45;;;;;;;12.90;6.90;;;-0.50;99.90;;;;;;5093370;28;20284;-58
2021/12/03 06:54:11;;;;;;;15.80;7.30;;;-0.50;99.90;;;;;;5093197;28;20595;-58
2021/12/03 06:56:47;;;;;;;15.10;7.03;;;-0.40;99.90;;;;;;5093158;28;20219;-58
2021/12/03 06:59:14;;;;;;;12.67;6.93;;;-0.40;99.90;;;;;;5093353;28;20164;-58
2021/12/03 07:01:40;;;;;;;13.40;7.30;;;-0.40;99.90;;;;;;5092906;28;20208;-58
2021/12/03 07:04:05;;;;;;;14.50;7.23;;;-0.40;99.90;;;;;;5093321;28;20232;-58
2021/12/03 07:06:31;;;;;;;16.03;7.50;;;-0.40;99.90;;;;;;5093112;28;20636;-58
2021/12/03 07:08:56;;;;;;;12.00;6.97;;;-0.40;99.90;;;;;;5092896;28;20187;-58
2021/12/03 07:11:22;;;;;;;17.20;7.33;;;-0.40;99.90;;;;;;5093105;28;20176;-58
2021/12/03 07:13:48;;;;;;;14.67;7.17;;;-0.40;99.90;;;;;;5093146;28;20180;-58
2021/12/03 07:16:14;;;;;;;14.10;8.00;;;-0.40;99.90;;;;;;5093132;28;20203;-58
2021/12/03 07:18:40;;;;;;;14.13;7.80;;;-0.50;99.90;;;;;;5092782;28;20267;-58
2021/12/03 07:21:05;;;;;;;12.90;7.23;;;-0.50;99.90;;;;;;5092965;28;20570;-58
2021/12/03 07:23:31;;;;;;;10.50;6.13;;;-0.60;99.90;;;;;;5092861;28;20260;-58
2021/12/03 07:25:59;;;;;;;13.97;7.43;;;-0.60;99.90;;;;;;5092746;28;20731;-58
2021/12/03 07:28:24;;;;;;;13.80;7.43;;;-0.60;99.90;;;;;;5092792;28;20203;-58
2021/12/03 07:30:50;;;;;;;14.20;6.93;;;-0.60;99.90;;;;;;5092690;28;20681;-58
2021/12/03 07:33:17;;;;;;;13.87;7.03;;;-0.60;99.90;;;;;;5092792;28;20176;-58
2021/12/03 07:35:45;;;;;;;17.20;7.27;;;-0.60;99.90;;;;;;5092666;28;20172;-58
2021/12/03 07:38:12;;;;;;;14.87;7.87;;;-0.60;99.90;;;;;;5092680;28;20246;-58
2021/12/03 07:40:37;;;;;;;11.83;6.53;;;-0.50;99.90;;;;;;5072170;28;20263;-58
2021/12/03 07:43:03;;;;;;;9.73;6.17;;;-0.50;99.90;;;;;;5072272;28;20734;-58
2021/12/03 07:52:15;;;;;;;13.20;5.83;;;-0.30;99.90;;;;;;5072167;28;20654;-58
2021/12/03 07:54:41;;;;;;;10.83;5.33;;;-0.20;99.90;;;;;;5071641;28;20232;-58
2021/12/03 07:57:07;;;;;;;12.13;5.73;;;-0.20;99.90;;;;;;5072062;28;20173;-58
2021/12/03 07:59:32;;;;;;;11.27;5.80;;;-0.10;99.90;;;;;;5071918;28;20238;-58
2021/12/03 08:01:58;;;;;;;10.07;5.50;;;-0.10;99.90;;;;;;5071857;28;20216;-58
2021/12/03 08:04:23;;;;;;;10.30;5.30;;;0.00;99.90;;;;;;5071955;28;20218;-58
2021/12/03 08:06:52;;;;;;;10.97;5.73;;;0.00;99.90;;;;;;5071863;28;20172;-58
2021/12/03 08:09:18;;;;;;;10.87;5.40;;;0.00;99.90;;;;;;5072105;28;20200;-58
2021/12/03 08:11:44;;;;;;;11.20;5.50;;;0.10;99.90;;;;;;5071833;28;20215;-58
2021/12/03 08:14:09;;;;;;;8.47;5.23;;;0.20;99.90;;;;;;5071914;28;20179;-58
2021/12/03 08:16:35;;;;;;;9.80;4.67;;;0.30;99.90;;;;;;5071705;28;20183;-58
2021/12/03 08:19:00;;;;;;;11.40;5.40;;;0.30;99.90;;;;;;5071661;28;20533;-58
2021/12/03 08:21:26;;;;;;;8.40;5.20;;;0.40;99.90;;;;;;5070422;28;20204;-58
2021/12/03 08:23:52;;;;;;;9.10;5.03;;;0.40;99.90;;;;;;5071632;28;20201;-58
2021/12/03 08:26:17;;;;;;;6.23;4.67;;;0.50;99.90;;;;;;5071542;28;20199;-58
2021/12/03 08:28:43;;;;;;;6.87;4.20;;;0.50;99.90;;;;;;5071634;28;20608;-58
2021/12/03 08:31:14;;;;;;;7.80;4.73;;;0.50;99.90;;;;;;5071675;28;20652;-58
2021/12/03 08:33:39;;;;;;;6.00;3.87;;;0.60;99.90;;;;;;5071432;28;20255;-57
2021/12/03 08:36:05;;;;;;;6.03;3.97;;;0.70;99.90;;;;;;5071552;28;20268;-58
2021/12/03 08:38:30;;;;;;;6.77;4.40;;;0.70;99.90;;;;;;5074282;28;20192;-58
2021/12/03 08:40:56;;;;;;;8.23;4.37;;;0.80;99.90;;;;;;5091819;28;20180;-58
2021/12/03 08:43:22;;;;;;;7.40;4.00;;;0.80;99.90;;;;;;5091462;28;20219;-58
2021/12/03 08:45:53;;;;;;;8.83;4.30;;;0.90;99.90;;;;;;5091683;28;20172;-58
2021/12/03 08:48:19;;;;;;;10.63;4.90;;;0.90;99.90;;;;;;5091624;28;20192;-58
2021/12/03 08:50:51;;;;;;;6.93;4.00;;;1.00;99.90;;;;;;5091562;28;20635;-58
2021/12/03 08:55:46;;;;;;;6.43;4.20;;;1.10;99.90;;;;;;5095487;28;20228;-58
2021/12/03 08:58:13;;;;;;;8.47;4.57;;;1.10;99.90;;;;;;5094613;28;20175;-58
2021/12/03 09:00:39;;;;;;;6.47;4.13;;;1.10;99.90;;;;;;5095379;28;20253;-58
2021/12/03 09:03:06;;;;;;;8.27;4.70;;;1.10;99.90;;;;;;5095567;28;20578;-58
2021/12/03 09:05:34;;;;;;;8.30;4.10;;;1.10;99.90;;;;;;5095475;28;20168;-58
2021/12/03 09:08:00;;;;;;;7.00;4.27;;;1.20;99.90;;;;;;5095462;28;20218;-58
2021/12/03 09:10:26;;;;;;;7.57;3.93;;;1.20;99.90;;;;;;5095387;28;20180;-58
2021/12/03 09:12:52;;;;;;;6.27;4.27;;;1.20;99.90;;;;;;5095291;28;20323;-58
2021/12/03 09:15:25;;;;;;;8.27;4.20;;;1.30;99.90;;;;;;5095223;28;20210;-58
2021/12/03 09:22:58;;;;;;;6.30;3.90;;;1.50;99.90;;;;;;5095190;28;20211;-58
2021/12/03 09:25:32;;;;;;;7.07;4.30;;;1.50;99.90;;;;;;5095217;28;20176;-58
2021/12/03 09:28:02;;;;;;;10.77;3.90;;;1.50;99.90;;;;;;5094944;28;20191;-58
2021/12/03 09:30:35;;;;;;;9.53;4.57;;;1.60;99.90;;;;;;5095010;28;20204;-58
2021/12/03 09:33:01;;;;;;;5.73;3.63;;;1.60;99.90;;;;;;5094993;28;20185;-57
2021/12/03 09:35:29;;;;;;;8.27;4.03;;;1.60;99.90;;;;;;5094919;28;20208;-58
2021/12/03 09:37:54;;;;;;;10.50;4.23;;;1.70;99.90;;;;;;5094950;28;20234;-58
2021/12/03 09:40:22;;;;;;;7.17;4.30;;;1.80;99.90;;;;;;5094558;28;20644;-58
2021/12/03 09:42:48;;;;;;;8.30;4.23;;;1.80;99.90;;;;;;5094825;28;20219;-58
2021/12/03 09:45:15;;;;;;;12.40;4.47;;;1.90;99.90;;;;;;5094763;28;20176;-57
2021/12/03 09:47:40;;;;;;;7.80;4.80;;;1.90;99.90;;;;;;5094518;28;20187;-57
2021/12/03 09:50:12;;;;;;;7.33;4.30;;;1.90;99.90;;;;;;5094677;28;20180;-57
2021/12/03 09:52:48;;;;;;;7.00;4.33;;;1.90;99.90;;;;;;5094426;28;20203;-58
2021/12/03 09:55:15;;;;;;;7.17;4.27;;;2.00;99.90;;;;;;5094342;28;20232;-58
2021/12/03 09:57:55;;;;;;;6.40;3.90;;;2.10;99.90;;;;;;5094297;28;20176;-57
2021/12/03 10:14:24;;;;;;;9.23;4.20;;;2.80;99.90;;;;;;5094215;28;20175;-58
2021/12/03 10:19:59;;;;;;;5.17;3.57;;;2.80;99.90;;;;;;5094062;28;20177;-57
2021/12/03 10:31:26;;;;;;;6.13;4.20;;;2.80;99.90;;;;;;5093697;28;20176;-57
2021/12/03 10:44:00;;;;;;;5.60;3.50;;;3.20;99.90;;;;;;5093725;28;20271;-57
2021/12/03 10:57:05;;;;;;;4.53;2.78;;;3.60;99.90;;;;;;5093188;28;20314;-57
2021/12/03 11:02:57;;;;;;;10.10;3.57;;;3.80;99.90;;;;;;5093346;28;20221;-57
2021/12/03 11:27:14;;;;;;;6.20;3.80;;;4.20;99.90;;;;;;5092721;28;20553;-57
2021/12/03 11:38:10;;;;;;;4.72;3.50;;;4.40;99.90;;;;;;5087049;28;20657;-57
2021/12/03 11:44:14;;;;;;;4.63;2.60;;;4.50;99.90;;;;;;5092478;28;20337;-58
2021/12/03 12:14:20;;;;;;;15.43;6.77;;;3.80;99.90;;;;;;5092070;28;20180;-57
2021/12/03 12:27:53;;;;;;;5.97;3.53;;;3.80;99.90;;;;;;5090279;28;20214;-58
2021/12/03 12:56:39;;;;;;;4.97;2.83;;;4.30;99.90;;;;;;5091680;28;20269;-57
2021/12/03 14:00:51;;;;;;;7.90;3.30;;;4.00;99.90;;;;;;5094556;28;20179;-58
2021/12/03 14:36:54;;;;;;;5.93;2.90;;;3.90;99.90;;;;;;5093883;28;20544;-58
2021/12/03 14:39:40;;;;;;;3.60;2.38;;;3.90;99.90;;;;;;5093563;28;20172;-58
2021/12/03 14:54:28;;;;;;;12.43;5.20;;;4.00;99.90;;;;;;5070763;28;20284;-58
2021/12/03 14:57:40;;;;;;;9.90;3.58;;;3.90;99.90;;;;;;5090883;28;20270;-58
2021/12/03 15:08:07;;;;;;;8.45;3.70;;;3.90;99.90;;;;;;5093324;28;20179;-58
2021/12/03 15:13:54;;;;;;;6.88;3.67;;;3.90;99.90;;;;;;5093307;28;20183;-57
2021/12/03 15:24:42;;;;;;;5.28;2.75;;;3.70;99.90;;;;;;5093034;28;20179;-57
2021/12/03 15:35:09;;;;;;;48.40;20.98;;;3.50;99.90;;;;;;5092733;28;20651;-58
2021/12/03 15:54:23;;;;;;;21.73;10.77;;;3.00;99.90;;;;;;5090957;28;20234;-58
2021/12/03 15:56:46;;;;;;;10.10;6.03;;;2.90;99.90;;;;;;5091912;28;20650;-57
2021/12/03 16:04:45;;;;;;;12.20;4.50;;;2.60;99.90;;;;;;5090544;28;20187;-57
2021/12/03 16:07:22;;;;;;;6.05;3.83;;;2.60;99.90;;;;;;5092059;28;20179;-57
2021/12/03 16:12:47;;;;;;;11.55;5.53;;;2.40;99.90;;;;;;5071849;28;20594;-58
2021/12/03 16:15:37;;;;;;;8.40;4.53;;;2.40;99.90;;;;;;5071945;28;20241;-57
2021/12/03 16:18:40;;;;;;;6.57;4.07;;;2.30;99.90;;;;;;5071895;28;20184;-57
2021/12/03 16:52:56;;;;;;;3.87;3.13;;;2.10;99.90;;;;;;5091573;28;20268;-57
2021/12/03 16:55:22;;;;;;;6.20;2.47;;;2.10;99.90;;;;;;5091369;28;20239;-58
2021/12/03 16:57:51;;;;;;;5.70;3.10;;;2.10;99.90;;;;;;5091198;28;20176;-58
2021/12/03 17:00:25;;;;;;;3.53;2.50;;;2.10;99.90;;;;;;5091273;28;20202;-58
2021/12/03 17:06:42;;;;;;;2.60;2.13;;;2.20;99.90;;;;;;5072731;28;20450;-58
2021/12/03 17:19:48;;;;;;;7.15;3.03;;;2.10;99.90;;;;;;5094719;28;20172;-59
2021/12/03 17:48:39;;;;;;;3.10;2.33;;;2.00;99.90;;;;;;5094013;28;20180;-58
2021/12/03 17:54:28;;;;;;;2.97;2.47;;;2.10;99.90;;;;;;5094029;28;20578;-57
2021/12/03 17:56:43;;;;;;;5.77;3.13;;;2.10;99.90;;;;;;5092044;28;20218;-58
2021/12/03 17:59:17;;;;;;;5.57;3.20;;;2.10;99.90;;;;;;5094257;28;20187;-58
2021/12/03 18:02:10;;;;;;;5.47;2.57;;;2.10;99.90;;;;;;5094301;28;20160;-58
2021/12/03 18:05:15;;;;;;;4.77;2.80;;;2.10;99.90;;;;;;5093937;28;20192;-59
2021/12/03 18:07:35;;;;;;;3.90;2.30;;;2.20;99.90;;;;;;5091215;28;20241;-57
2021/12/03 18:15:33;;;;;;;5.00;2.57;;;2.30;99.90;;;;;;5094066;28;20180;-57
2021/12/03 18:18:37;;;;;;;4.53;2.40;;;2.30;99.90;;;;;;5093551;28;20200;-57
2021/12/03 18:46:01;;;;;;;7.37;3.77;;;2.50;99.90;;;;;;5092989;28;20195;-57
2021/12/03 18:48:45;;;;;;;9.37;4.03;;;2.50;99.90;;;;;;5092717;28;20695;-59
2021/12/03 18:54:44;;;;;;;5.13;2.83;;;2.60;99.90;;;;;;5092784;28;20187;-58
2021/12/03 18:56:42;;;;;;;6.20;2.70;;;2.50;99.90;;;;;;5087414;28;20277;-57
2021/12/03 18:59:08;;;;;;;6.23;3.33;;;2.60;99.90;;;;;;5093501;28;20187;-58
2021/12/03 19:01:36;;;;;;;3.10;2.33;;;2.60;99.90;;;;;;5104400;28;20218;-58
2021/12/03 19:04:25;;;;;;;17.97;6.80;;;2.60;99.90;;;;;;5092591;28;20643;-58
2021/12/03 19:07:13;;;;;;;13.15;4.65;;;2.60;99.90;;;;;;5090368;28;20296;-58
2021/12/03 19:09:43;;;;;;;10.37;3.93;;;2.60;99.90;;;;;;5092252;28;20233;-58
2021/12/03 19:12:11;;;;;;;7.23;3.87;;;2.60;99.90;;;;;;5091582;28;20255;-58
2021/12/03 19:14:40;;;;;;;6.63;4.30;;;2.60;99.90;;;;;;5092879;28;20657;-58
2021/12/03 19:17:08;;;;;;;4.83;2.87;;;2.60;99.90;;;;;;5093223;28;20202;-59
2021/12/03 19:19:39;;;;;;;5.57;2.80;;;2.60;99.90;;;;;;5092901;28;20178;-60
2021/12/03 19:22:05;;;;;;;5.90;3.07;;;2.70;99.90;;;;;;5093058;28;20214;-59
2021/12/03 19:24:32;;;;;;;5.83;2.83;;;2.60;99.90;;;;;;5092678;28;20176;-59
2021/12/03 19:26:57;;;;;;;3.00;2.10;;;2.70;99.90;;;;;;5092909;28;20184;-59
2021/12/03 19:29:24;;;;;;;5.03;2.40;;;2.70;99.90;;;;;;5102169;28;20182;-60
2021/12/03 19:31:51;;;;;;;7.07;2.87;;;2.70;99.90;;;;;;5095387;28;20176;-59
2021/12/03 19:34:19;;;;;;;8.00;3.30;;;2.70;99.90;;;;;;5092732;28;20180;-59
2021/12/03 19:36:46;;;;;;;5.93;3.17;;;2.70;99.90;;;;;;5092423;28;20176;-59
2021/12/03 19:39:15;;;;;;;8.50;4.13;;;2.70;99.90;;;;;;5092667;28;20183;-59
2021/12/03 19:41:49;;;;;;;9.20;3.50;;;2.70;99.90;;;;;;5092548;28;20160;-58
2021/12/03 19:44:19;;;;;;;6.27;2.97;;;2.70;99.90;;;;;;5092597;28;20266;-59
2021/12/03 19:46:48;;;;;;;4.73;2.73;;;2.70;99.90;;;;;;5092489;28;20670;-59
2021/12/03 19:49:32;;;;;;;7.40;3.40;;;2.70;99.90;;;;;;5092472;28;20168;-58
2021/12/03 19:52:05;;;;;;;6.50;3.10;;;2.70;99.90;;;;;;5092541;28;20191;-59
2021/12/03 19:54:30;;;;;;;3.00;2.20;;;2.80;99.90;;;;;;5092102;28;20547;-58
2021/12/03 19:56:56;;;;;;;3.87;1.90;;;2.80;99.90;;;;;;5092302;28;20258;-58
2021/12/03 19:59:22;;;;;;;2.00;1.80;;;2.80;99.90;;;;;;5092156;28;20194;-59
2021/12/03 20:01:47;;;;;;;2.70;2.13;;;2.70;99.90;;;;;;5092069;28;20221;-58
2021/12/03 20:04:14;;;;;;;5.53;2.90;;;2.80;99.90;;;;;;5092106;28;20267;-59
2021/12/03 20:06:43;;;;;;;5.93;2.88;;;2.80;99.90;;;;;;5092124;28;20516;-58